sensor_id;sensor_type;location;lat;lon;timestamp;P1;durP1;ratioP1;P2;durP2;ratioP2
64520;SDS011;50896;46.714;17.322;2022-09-27T00:01:15;8.52;;;7.32;;
64520;SDS011;50896;46.714;17.322;2022-09-27T00:03:42;9.82;;;8.15;;
64520;SDS011;50896;46.714;17.322;2022-09-27T00:08:46;8.55;;;7.43;;
64520;SDS011;50896;46.714;17.322;2022-09-27T00:11:26;8.55;;;7.13;;
64520;SDS011;50896;46.714;17.322;2022-09-27T00:13:59;7.80;;;7.00;;
64520;SDS011;50896;46.714;17.322;2022-09-27T00:16:27;9.70;;;7.10;;
64520;SDS011;50896;46.714;17.322;2022-09-27T00:18:59;8.38;;;6.32;;
64520;SDS011;50896;46.714;17.322;2022-09-27T00:21:28;8.80;;;6.78;;
64520;SDS011;50896;46.714;17.322;2022-09-27T00:23:56;11.18;;;7.00;;
64520;SDS011;50896;46.714;17.322;2022-09-27T00:26:23;12.90;;;7.47;;
64520;SDS011;50896;46.714;17.322;2022-09-27T00:28:50;10.73;;;6.97;;
64520;SDS011;50896;46.714;17.322;2022-09-27T00:31:24;9.35;;;7.03;;
64520;SDS011;50896;46.714;17.322;2022-09-27T00:33:55;9.70;;;6.85;;
64520;SDS011;50896;46.714;17.322;2022-09-27T00:36:24;9.13;;;7.07;;
64520;SDS011;50896;46.714;17.322;2022-09-27T00:38:53;8.65;;;6.80;;
64520;SDS011;50896;46.714;17.322;2022-09-27T00:41:22;11.45;;;7.40;;
64520;SDS011;50896;46.714;17.322;2022-09-27T00:43:51;9.65;;;7.28;;
64520;SDS011;50896;46.714;17.322;2022-09-27T00:46:41;9.82;;;7.07;;
64520;SDS011;50896;46.714;17.322;2022-09-27T00:49:26;7.82;;;6.45;;
64520;SDS011;50896;46.714;17.322;2022-09-27T00:51:58;7.05;;;6.07;;
64520;SDS011;50896;46.714;17.322;2022-09-27T00:54:30;6.68;;;5.97;;
64520;SDS011;50896;46.714;17.322;2022-09-27T00:57:00;8.15;;;7.10;;
64520;SDS011;50896;46.714;17.322;2022-09-27T00:59:29;7.32;;;6.63;;
64520;SDS011;50896;46.714;17.322;2022-09-27T01:02:07;10.07;;;6.60;;
64520;SDS011;50896;46.714;17.322;2022-09-27T01:04:34;7.15;;;6.32;;
64520;SDS011;50896;46.714;17.322;2022-09-27T01:07:04;9.43;;;7.18;;
64520;SDS011;50896;46.714;17.322;2022-09-27T01:09:31;8.20;;;6.45;;
64520;SDS011;50896;46.714;17.322;2022-09-27T01:15:05;7.90;;;6.47;;
64520;SDS011;50896;46.714;17.322;2022-09-27T01:31:31;8.73;;;7.30;;
64520;SDS011;50896;46.714;17.322;2022-09-27T01:37:05;9.98;;;7.00;;
64520;SDS011;50896;46.714;17.322;2022-09-27T01:45:18;10.38;;;7.20;;
64520;SDS011;50896;46.714;17.322;2022-09-27T01:48:11;8.70;;;7.80;;
64520;SDS011;50896;46.714;17.322;2022-09-27T01:50:54;8.98;;;7.25;;
64520;SDS011;50896;46.714;17.322;2022-09-27T01:53:28;9.20;;;7.50;;
64520;SDS011;50896;46.714;17.322;2022-09-27T01:56:23;8.07;;;6.90;;
64520;SDS011;50896;46.714;17.322;2022-09-27T02:01:42;10.25;;;8.73;;
64520;SDS011;50896;46.714;17.322;2022-09-27T02:04:14;10.00;;;8.43;;
64520;SDS011;50896;46.714;17.322;2022-09-27T02:07:19;8.60;;;7.68;;
64520;SDS011;50896;46.714;17.322;2022-09-27T02:09:57;9.27;;;7.82;;
64520;SDS011;50896;46.714;17.322;2022-09-27T02:12:41;8.80;;;7.55;;
64520;SDS011;50896;46.714;17.322;2022-09-27T02:15:22;10.13;;;8.07;;
64520;SDS011;50896;46.714;17.322;2022-09-27T02:26:15;10.50;;;8.88;;
64520;SDS011;50896;46.714;17.322;2022-09-27T02:28:51;11.70;;;9.60;;
64520;SDS011;50896;46.714;17.322;2022-09-27T02:31:27;11.18;;;8.77;;
64520;SDS011;50896;46.714;17.322;2022-09-27T02:34:00;10.68;;;9.13;;
64520;SDS011;50896;46.714;17.322;2022-09-27T02:36:30;11.77;;;9.82;;
64520;SDS011;50896;46.714;17.322;2022-09-27T02:38:57;13.07;;;9.80;;
64520;SDS011;50896;46.714;17.322;2022-09-27T02:41:25;10.73;;;8.85;;
64520;SDS011;50896;46.714;17.322;2022-09-27T02:43:53;11.95;;;9.90;;
64520;SDS011;50896;46.714;17.322;2022-09-27T02:46:31;11.35;;;9.45;;
64520;SDS011;50896;46.714;17.322;2022-09-27T02:55:39;12.57;;;10.57;;
64520;SDS011;50896;46.714;17.322;2022-09-27T03:01:52;14.35;;;11.25;;
64520;SDS011;50896;46.714;17.322;2022-09-27T03:05:02;14.52;;;11.95;;
64520;SDS011;50896;46.714;17.322;2022-09-27T03:07:32;13.77;;;11.10;;
64520;SDS011;50896;46.714;17.322;2022-09-27T03:10:01;15.82;;;11.95;;
64520;SDS011;50896;46.714;17.322;2022-09-27T03:12:27;13.27;;;10.70;;
64520;SDS011;50896;46.714;17.322;2022-09-27T03:14:58;12.75;;;10.10;;
64520;SDS011;50896;46.714;17.322;2022-09-27T03:17:52;13.00;;;9.63;;
64520;SDS011;50896;46.714;17.322;2022-09-27T03:20:57;13.95;;;10.65;;
64520;SDS011;50896;46.714;17.322;2022-09-27T03:23:24;13.50;;;9.95;;
64520;SDS011;50896;46.714;17.322;2022-09-27T03:25:51;16.98;;;11.68;;
64520;SDS011;50896;46.714;17.322;2022-09-27T03:28:20;15.88;;;11.15;;
64520;SDS011;50896;46.714;17.322;2022-09-27T03:30:47;14.70;;;10.48;;
64520;SDS011;50896;46.714;17.322;2022-09-27T03:33:44;15.38;;;9.93;;
64520;SDS011;50896;46.714;17.322;2022-09-27T03:36:11;12.88;;;10.27;;
64520;SDS011;50896;46.714;17.322;2022-09-27T03:38:38;13.63;;;10.50;;
64520;SDS011;50896;46.714;17.322;2022-09-27T03:43:34;12.77;;;9.73;;
64520;SDS011;50896;46.714;17.322;2022-09-27T03:46:02;14.02;;;9.63;;
64520;SDS011;50896;46.714;17.322;2022-09-27T03:48:29;16.02;;;10.93;;
64520;SDS011;50896;46.714;17.322;2022-09-27T03:50:56;11.57;;;9.27;;
64520;SDS011;50896;46.714;17.322;2022-09-27T03:53:23;14.38;;;10.45;;
64520;SDS011;50896;46.714;17.322;2022-09-27T03:55:50;13.43;;;10.52;;
64520;SDS011;50896;46.714;17.322;2022-09-27T03:58:17;13.27;;;10.32;;
64520;SDS011;50896;46.714;17.322;2022-09-27T04:00:44;13.23;;;10.55;;
64520;SDS011;50896;46.714;17.322;2022-09-27T04:03:12;10.45;;;9.15;;
64520;SDS011;50896;46.714;17.322;2022-09-27T04:05:57;11.80;;;9.05;;
64520;SDS011;50896;46.714;17.322;2022-09-27T04:08:34;10.77;;;8.68;;
64520;SDS011;50896;46.714;17.322;2022-09-27T04:11:03;11.70;;;9.15;;
64520;SDS011;50896;46.714;17.322;2022-09-27T04:13:31;11.25;;;8.43;;
64520;SDS011;50896;46.714;17.322;2022-09-27T04:15:58;9.10;;;8.07;;
64520;SDS011;50896;46.714;17.322;2022-09-27T04:18:50;11.32;;;7.72;;
64520;SDS011;50896;46.714;17.322;2022-09-27T04:21:36;12.02;;;8.60;;
64520;SDS011;50896;46.714;17.322;2022-09-27T04:24:04;10.02;;;7.53;;
64520;SDS011;50896;46.714;17.322;2022-09-27T04:26:32;8.20;;;7.30;;
64520;SDS011;50896;46.714;17.322;2022-09-27T04:29:01;9.45;;;7.45;;
64520;SDS011;50896;46.714;17.322;2022-09-27T04:31:30;9.23;;;7.77;;
64520;SDS011;50896;46.714;17.322;2022-09-27T04:34:03;11.75;;;8.90;;
64520;SDS011;50896;46.714;17.322;2022-09-27T04:36:33;10.63;;;7.68;;
64520;SDS011;50896;46.714;17.322;2022-09-27T04:39:05;10.40;;;7.88;;
64520;SDS011;50896;46.714;17.322;2022-09-27T04:41:36;8.75;;;7.47;;
64520;SDS011;50896;46.714;17.322;2022-09-27T04:44:03;7.97;;;7.15;;
64520;SDS011;50896;46.714;17.322;2022-09-27T04:46:32;7.93;;;6.97;;
64520;SDS011;50896;46.714;17.322;2022-09-27T04:49:00;7.68;;;6.88;;
64520;SDS011;50896;46.714;17.322;2022-09-27T04:51:29;7.30;;;6.60;;
64520;SDS011;50896;46.714;17.322;2022-09-27T04:53:56;7.53;;;6.70;;
64520;SDS011;50896;46.714;17.322;2022-09-27T04:56:32;7.68;;;6.60;;
64520;SDS011;50896;46.714;17.322;2022-09-27T04:59:01;8.02;;;6.72;;
64520;SDS011;50896;46.714;17.322;2022-09-27T05:01:36;11.18;;;7.68;;
64520;SDS011;50896;46.714;17.322;2022-09-27T05:04:35;8.02;;;7.20;;
64520;SDS011;50896;46.714;17.322;2022-09-27T05:07:03;9.88;;;7.50;;
64520;SDS011;50896;46.714;17.322;2022-09-27T05:09:38;9.35;;;8.02;;
64520;SDS011;50896;46.714;17.322;2022-09-27T05:12:06;8.55;;;7.65;;
64520;SDS011;50896;46.714;17.322;2022-09-27T05:14:43;11.35;;;8.25;;
64520;SDS011;50896;46.714;17.322;2022-09-27T05:17:30;12.43;;;9.25;;
64520;SDS011;50896;46.714;17.322;2022-09-27T05:20:16;11.75;;;9.25;;
64520;SDS011;50896;46.714;17.322;2022-09-27T05:22:51;11.55;;;9.73;;
64520;SDS011;50896;46.714;17.322;2022-09-27T05:25:18;12.45;;;9.80;;
64520;SDS011;50896;46.714;17.322;2022-09-27T05:27:44;12.50;;;9.43;;
64520;SDS011;50896;46.714;17.322;2022-09-27T05:30:12;11.63;;;9.65;;
64520;SDS011;50896;46.714;17.322;2022-09-27T05:32:45;13.15;;;9.82;;
64520;SDS011;50896;46.714;17.322;2022-09-27T05:35:41;12.55;;;8.98;;
64520;SDS011;50896;46.714;17.322;2022-09-27T05:38:11;13.45;;;10.52;;
64520;SDS011;50896;46.714;17.322;2022-09-27T05:40:41;13.85;;;11.05;;
64520;SDS011;50896;46.714;17.322;2022-09-27T05:43:10;14.63;;;9.57;;
64520;SDS011;50896;46.714;17.322;2022-09-27T05:45:36;11.68;;;9.32;;
64520;SDS011;50896;46.714;17.322;2022-09-27T05:48:04;15.70;;;11.30;;
64520;SDS011;50896;46.714;17.322;2022-09-27T05:50:36;19.30;;;13.23;;
64520;SDS011;50896;46.714;17.322;2022-09-27T05:53:04;19.73;;;13.40;;
64520;SDS011;50896;46.714;17.322;2022-09-27T05:55:31;22.63;;;15.57;;
64520;SDS011;50896;46.714;17.322;2022-09-27T05:57:59;22.75;;;16.80;;
64520;SDS011;50896;46.714;17.322;2022-09-27T06:00:56;26.30;;;18.52;;
64520;SDS011;50896;46.714;17.322;2022-09-27T06:03:43;32.65;;;20.27;;
64520;SDS011;50896;46.714;17.322;2022-09-27T06:06:43;35.47;;;21.23;;
64520;SDS011;50896;46.714;17.322;2022-09-27T06:09:11;28.58;;;20.33;;
64520;SDS011;50896;46.714;17.322;2022-09-27T06:11:39;28.20;;;20.20;;
64520;SDS011;50896;46.714;17.322;2022-09-27T06:14:12;32.40;;;20.25;;
64520;SDS011;50896;46.714;17.322;2022-09-27T06:16:53;25.10;;;18.42;;
64520;SDS011;50896;46.714;17.322;2022-09-27T06:21:50;27.13;;;19.20;;
64520;SDS011;50896;46.714;17.322;2022-09-27T06:24:17;29.08;;;18.33;;
64520;SDS011;50896;46.714;17.322;2022-09-27T06:26:44;25.13;;;17.95;;
64520;SDS011;50896;46.714;17.322;2022-09-27T06:29:30;24.33;;;17.63;;
64520;SDS011;50896;46.714;17.322;2022-09-27T06:32:02;22.63;;;17.27;;
64520;SDS011;50896;46.714;17.322;2022-09-27T06:34:39;23.13;;;17.40;;
64520;SDS011;50896;46.714;17.322;2022-09-27T06:37:07;22.67;;;17.05;;
64520;SDS011;50896;46.714;17.322;2022-09-27T06:39:33;20.17;;;15.05;;
64520;SDS011;50896;46.714;17.322;2022-09-27T06:42:19;22.00;;;13.57;;
64520;SDS011;50896;46.714;17.322;2022-09-27T06:44:52;21.10;;;14.68;;
64520;SDS011;50896;46.714;17.322;2022-09-27T06:47:38;19.75;;;15.63;;
64520;SDS011;50896;46.714;17.322;2022-09-27T06:50:34;18.98;;;15.15;;
64520;SDS011;50896;46.714;17.322;2022-09-27T06:53:05;19.20;;;14.70;;
64520;SDS011;50896;46.714;17.322;2022-09-27T06:55:33;17.93;;;14.57;;
64520;SDS011;50896;46.714;17.322;2022-09-27T06:58:00;16.88;;;13.25;;
64520;SDS011;50896;46.714;17.322;2022-09-27T07:01:06;16.70;;;12.27;;
64520;SDS011;50896;46.714;17.322;2022-09-27T07:03:51;13.93;;;11.38;;
64520;SDS011;50896;46.714;17.322;2022-09-27T07:07:00;13.27;;;11.00;;
64520;SDS011;50896;46.714;17.322;2022-09-27T07:09:30;16.10;;;10.30;;
64520;SDS011;50896;46.714;17.322;2022-09-27T07:11:57;16.75;;;10.57;;
64520;SDS011;50896;46.714;17.322;2022-09-27T07:14:24;11.93;;;9.50;;
64520;SDS011;50896;46.714;17.322;2022-09-27T07:16:53;12.02;;;9.32;;
64520;SDS011;50896;46.714;17.322;2022-09-27T07:19:20;13.57;;;9.65;;
64520;SDS011;50896;46.714;17.322;2022-09-27T07:21:49;13.00;;;9.45;;
64520;SDS011;50896;46.714;17.322;2022-09-27T07:24:16;10.60;;;8.82;;
64520;SDS011;50896;46.714;17.322;2022-09-27T07:26:44;12.60;;;9.25;;
64520;SDS011;50896;46.714;17.322;2022-09-27T07:29:15;15.23;;;9.45;;
64520;SDS011;50896;46.714;17.322;2022-09-27T07:31:42;10.35;;;8.60;;
64520;SDS011;50896;46.714;17.322;2022-09-27T07:34:09;15.38;;;9.40;;
64520;SDS011;50896;46.714;17.322;2022-09-27T07:36:36;10.02;;;8.50;;
64520;SDS011;50896;46.714;17.322;2022-09-27T07:39:03;9.15;;;7.85;;
64520;SDS011;50896;46.714;17.322;2022-09-27T07:41:32;11.52;;;8.52;;
64520;SDS011;50896;46.714;17.322;2022-09-27T07:43:58;10.80;;;7.63;;
64520;SDS011;50896;46.714;17.322;2022-09-27T07:46:28;10.77;;;8.52;;
64520;SDS011;50896;46.714;17.322;2022-09-27T07:49:15;9.23;;;7.97;;
64520;SDS011;50896;46.714;17.322;2022-09-27T07:51:54;10.57;;;8.43;;
64520;SDS011;50896;46.714;17.322;2022-09-27T07:54:45;10.95;;;8.20;;
64520;SDS011;50896;46.714;17.322;2022-09-27T07:57:33;12.15;;;8.02;;
64520;SDS011;50896;46.714;17.322;2022-09-27T08:00:01;11.65;;;7.70;;
64520;SDS011;50896;46.714;17.322;2022-09-27T08:02:38;9.68;;;8.25;;
64520;SDS011;50896;46.714;17.322;2022-09-27T08:05:06;10.65;;;8.07;;
64520;SDS011;50896;46.714;17.322;2022-09-27T08:07:33;8.50;;;7.07;;
64520;SDS011;50896;46.714;17.322;2022-09-27T08:10:00;5.80;;;5.20;;
64520;SDS011;50896;46.714;17.322;2022-09-27T08:12:28;6.18;;;4.97;;
64520;SDS011;50896;46.714;17.322;2022-09-27T08:14:54;5.80;;;4.72;;
64520;SDS011;50896;46.714;17.322;2022-09-27T08:17:24;6.32;;;4.65;;
64520;SDS011;50896;46.714;17.322;2022-09-27T08:20:06;5.10;;;3.90;;
64520;SDS011;50896;46.714;17.322;2022-09-27T08:22:53;4.00;;;3.58;;
64520;SDS011;50896;46.714;17.322;2022-09-27T08:25:32;4.65;;;3.42;;
64520;SDS011;50896;46.714;17.322;2022-09-27T08:28:02;6.85;;;3.40;;
64520;SDS011;50896;46.714;17.322;2022-09-27T08:30:34;4.95;;;3.25;;
64520;SDS011;50896;46.714;17.322;2022-09-27T08:33:01;3.85;;;3.30;;
64520;SDS011;50896;46.714;17.322;2022-09-27T08:35:29;4.47;;;3.92;;
64520;SDS011;50896;46.714;17.322;2022-09-27T08:38:00;5.70;;;3.78;;
64520;SDS011;50896;46.714;17.322;2022-09-27T08:48:22;3.97;;;3.35;;
64520;SDS011;50896;46.714;17.322;2022-09-27T08:50:52;4.07;;;3.38;;
64520;SDS011;50896;46.714;17.322;2022-09-27T08:53:30;4.40;;;3.40;;
64520;SDS011;50896;46.714;17.322;2022-09-27T08:56:01;4.15;;;3.75;;
64520;SDS011;50896;46.714;17.322;2022-09-27T08:58:40;4.95;;;3.85;;
64520;SDS011;50896;46.714;17.322;2022-09-27T09:01:29;6.90;;;3.88;;
64520;SDS011;50896;46.714;17.322;2022-09-27T09:04:09;4.07;;;3.55;;
64520;SDS011;50896;46.714;17.322;2022-09-27T09:07:03;3.45;;;3.15;;
64520;SDS011;50896;46.714;17.322;2022-09-27T09:12:34;3.67;;;3.17;;
64520;SDS011;50896;46.714;17.322;2022-09-27T09:24:50;4.50;;;3.20;;
64520;SDS011;50896;46.714;17.322;2022-09-27T09:27:22;2.90;;;2.60;;
64520;SDS011;50896;46.714;17.322;2022-09-27T09:30:07;5.68;;;3.22;;
64520;SDS011;50896;46.714;17.322;2022-09-27T09:32:49;4.03;;;3.63;;
64520;SDS011;50896;46.714;17.322;2022-09-27T09:35:20;6.43;;;3.50;;
64520;SDS011;50896;46.714;17.322;2022-09-27T09:37:52;4.93;;;3.28;;
64520;SDS011;50896;46.714;17.322;2022-09-27T09:40:30;6.10;;;3.47;;
64520;SDS011;50896;46.714;17.322;2022-09-27T09:48:16;4.43;;;2.67;;
64520;SDS011;50896;46.714;17.322;2022-09-27T09:50:54;3.45;;;2.72;;
64520;SDS011;50896;46.714;17.322;2022-09-27T09:56:20;4.13;;;2.72;;
64520;SDS011;50896;46.714;17.322;2022-09-27T09:59:00;6.40;;;3.47;;
64520;SDS011;50896;46.714;17.322;2022-09-27T10:01:37;6.13;;;4.43;;
64520;SDS011;50896;46.714;17.322;2022-09-27T10:04:11;2.60;;;2.40;;
64520;SDS011;50896;46.714;17.322;2022-09-27T10:06:44;2.70;;;2.28;;
64520;SDS011;50896;46.714;17.322;2022-09-27T10:09:15;3.22;;;2.20;;
64520;SDS011;50896;46.714;17.322;2022-09-27T10:12:08;3.30;;;2.40;;
64520;SDS011;50896;46.714;17.322;2022-09-27T10:14:35;2.67;;;2.20;;
64520;SDS011;50896;46.714;17.322;2022-09-27T10:17:05;3.40;;;2.53;;
64520;SDS011;50896;46.714;17.322;2022-09-27T10:19:37;3.47;;;2.75;;
64520;SDS011;50896;46.714;17.322;2022-09-27T10:22:39;3.20;;;2.50;;
64520;SDS011;50896;46.714;17.322;2022-09-27T10:25:12;3.90;;;2.20;;
64520;SDS011;50896;46.714;17.322;2022-09-27T10:27:52;6.78;;;2.60;;
64520;SDS011;50896;46.714;17.322;2022-09-27T10:33:02;5.03;;;2.28;;
64520;SDS011;50896;46.714;17.322;2022-09-27T10:35:43;2.40;;;2.20;;
64520;SDS011;50896;46.714;17.322;2022-09-27T10:38:31;3.35;;;2.05;;
64520;SDS011;50896;46.714;17.322;2022-09-27T10:41:24;2.92;;;2.15;;
64520;SDS011;50896;46.714;17.322;2022-09-27T10:44:18;4.72;;;1.90;;
64520;SDS011;50896;46.714;17.322;2022-09-27T10:46:52;3.92;;;2.28;;
64520;SDS011;50896;46.714;17.322;2022-09-27T10:49:37;2.63;;;2.33;;
64520;SDS011;50896;46.714;17.322;2022-09-27T10:52:28;2.83;;;2.20;;
64520;SDS011;50896;46.714;17.322;2022-09-27T10:55:06;2.03;;;1.80;;
64520;SDS011;50896;46.714;17.322;2022-09-27T10:57:46;3.20;;;2.30;;
64520;SDS011;50896;46.714;17.322;2022-09-27T11:00:34;4.10;;;2.35;;
64520;SDS011;50896;46.714;17.322;2022-09-27T11:03:04;3.47;;;2.50;;
64520;SDS011;50896;46.714;17.322;2022-09-27T11:05:39;2.63;;;2.00;;
64520;SDS011;50896;46.714;17.322;2022-09-27T11:11:05;3.63;;;2.20;;
64520;SDS011;50896;46.714;17.322;2022-09-27T11:14:02;4.32;;;2.40;;
64520;SDS011;50896;46.714;17.322;2022-09-27T11:30:21;5.68;;;2.90;;
64520;SDS011;50896;46.714;17.322;2022-09-27T11:57:46;3.83;;;2.78;;
64520;SDS011;50896;46.714;17.322;2022-09-27T12:00:36;6.30;;;2.53;;
64520;SDS011;50896;46.714;17.322;2022-09-27T12:06:02;3.08;;;2.78;;
64520;SDS011;50896;46.714;17.322;2022-09-27T12:09:04;2.85;;;2.60;;
64520;SDS011;50896;46.714;17.322;2022-09-27T12:11:51;3.65;;;2.30;;
64520;SDS011;50896;46.714;17.322;2022-09-27T12:16:59;7.65;;;2.60;;
64520;SDS011;50896;46.714;17.322;2022-09-27T12:19:31;3.72;;;2.80;;
64520;SDS011;50896;46.714;17.322;2022-09-27T12:22:14;3.67;;;2.90;;
64520;SDS011;50896;46.714;17.322;2022-09-27T12:25:05;4.40;;;2.55;;
64520;SDS011;50896;46.714;17.322;2022-09-27T12:27:55;4.30;;;3.40;;
64520;SDS011;50896;46.714;17.322;2022-09-27T12:30:30;4.07;;;3.07;;
64520;SDS011;50896;46.714;17.322;2022-09-27T12:33:15;5.72;;;2.58;;
64520;SDS011;50896;46.714;17.322;2022-09-27T12:35:52;2.72;;;2.50;;
64520;SDS011;50896;46.714;17.322;2022-09-27T12:38:31;5.38;;;2.70;;
64520;SDS011;50896;46.714;17.322;2022-09-27T12:40:59;1.50;;;1.05;;
64520;SDS011;50896;46.714;17.322;2022-09-27T12:43:37;0.70;;;0.50;;
64520;SDS011;50896;46.714;17.322;2022-09-27T12:48:58;0.25;;;0.15;;
64520;SDS011;50896;46.714;17.322;2022-09-27T12:51:36;0.95;;;0.15;;
64520;SDS011;50896;46.714;17.322;2022-09-27T13:05:24;1.60;;;0.10;;
64520;SDS011;50896;46.714;17.322;2022-09-27T13:08:23;0.57;;;0.17;;
64520;SDS011;50896;46.714;17.322;2022-09-27T13:13:47;0.10;;;0.10;;
64520;SDS011;50896;46.714;17.322;2022-09-27T13:16:15;0.15;;;0.10;;
64520;SDS011;50896;46.714;17.322;2022-09-27T13:24:42;0.00;;;0.00;;
64520;SDS011;50896;46.714;17.322;2022-09-27T13:32:34;2.30;;;0.10;;
64520;SDS011;50896;46.714;17.322;2022-09-27T13:38:20;2.10;;;0.10;;
64520;SDS011;50896;46.714;17.322;2022-09-27T13:40:50;1.20;;;0.10;;
64520;SDS011;50896;46.714;17.322;2022-09-27T13:43:44;0.45;;;0.15;;
64520;SDS011;50896;46.714;17.322;2022-09-27T13:46:29;1.02;;;0.20;;
64520;SDS011;50896;46.714;17.322;2022-09-27T13:54:56;0.15;;;0.10;;
64520;SDS011;50896;46.714;17.322;2022-09-27T14:00:33;0.82;;;0.35;;
64520;SDS011;50896;46.714;17.322;2022-09-27T14:05:39;0.43;;;0.28;;
64520;SDS011;50896;46.714;17.322;2022-09-27T14:11:03;0.70;;;0.40;;
64520;SDS011;50896;46.714;17.322;2022-09-27T14:13:38;0.40;;;0.40;;
64520;SDS011;50896;46.714;17.322;2022-09-27T14:16:12;1.75;;;0.20;;
64520;SDS011;50896;46.714;17.322;2022-09-27T14:18:42;1.92;;;0.30;;
64520;SDS011;50896;46.714;17.322;2022-09-27T14:21:26;0.77;;;0.40;;
64520;SDS011;50896;46.714;17.322;2022-09-27T14:24:26;0.47;;;0.30;;
64520;SDS011;50896;46.714;17.322;2022-09-27T14:27:11;0.70;;;0.40;;
64520;SDS011;50896;46.714;17.322;2022-09-27T14:29:49;1.52;;;0.38;;
64520;SDS011;50896;46.714;17.322;2022-09-27T14:32:33;0.68;;;0.30;;
64520;SDS011;50896;46.714;17.322;2022-09-27T14:35:14;4.80;;;0.50;;
64520;SDS011;50896;46.714;17.322;2022-09-27T14:38:03;0.20;;;0.20;;
64520;SDS011;50896;46.714;17.322;2022-09-27T14:43:18;0.47;;;0.30;;
64520;SDS011;50896;46.714;17.322;2022-09-27T14:45:47;1.00;;;0.30;;
64520;SDS011;50896;46.714;17.322;2022-09-27T14:48:27;1.63;;;0.52;;
64520;SDS011;50896;46.714;17.322;2022-09-27T14:51:20;1.85;;;0.40;;
64520;SDS011;50896;46.714;17.322;2022-09-27T14:53:48;2.92;;;0.50;;
64520;SDS011;50896;46.714;17.322;2022-09-27T14:56:27;0.57;;;0.30;;
64520;SDS011;50896;46.714;17.322;2022-09-27T14:59:12;1.80;;;0.68;;
64520;SDS011;50896;46.714;17.322;2022-09-27T15:01:48;1.00;;;0.57;;
64520;SDS011;50896;46.714;17.322;2022-09-27T15:04:16;0.70;;;0.40;;
64520;SDS011;50896;46.714;17.322;2022-09-27T15:06:45;0.75;;;0.50;;
64520;SDS011;50896;46.714;17.322;2022-09-27T15:09:13;0.90;;;0.60;;
64520;SDS011;50896;46.714;17.322;2022-09-27T15:11:41;2.17;;;0.52;;
64520;SDS011;50896;46.714;17.322;2022-09-27T15:14:15;2.72;;;0.70;;
64520;SDS011;50896;46.714;17.322;2022-09-27T15:16:45;0.68;;;0.40;;
64520;SDS011;50896;46.714;17.322;2022-09-27T15:21:48;1.15;;;0.80;;
64520;SDS011;50896;46.714;17.322;2022-09-27T15:27:03;1.58;;;0.40;;
64520;SDS011;50896;46.714;17.322;2022-09-27T15:29:38;1.50;;;0.60;;
64520;SDS011;50896;46.714;17.322;2022-09-27T15:32:05;0.98;;;0.57;;
64520;SDS011;50896;46.714;17.322;2022-09-27T15:34:40;0.93;;;0.70;;
64520;SDS011;50896;46.714;17.322;2022-09-27T15:37:09;2.67;;;0.90;;
64520;SDS011;50896;46.714;17.322;2022-09-27T15:39:51;1.40;;;0.82;;
64520;SDS011;50896;46.714;17.322;2022-09-27T15:42:18;0.85;;;0.80;;
64520;SDS011;50896;46.714;17.322;2022-09-27T15:44:46;0.60;;;0.60;;
64520;SDS011;50896;46.714;17.322;2022-09-27T15:47:57;3.38;;;0.88;;
64520;SDS011;50896;46.714;17.322;2022-09-27T15:52:50;1.45;;;1.10;;
64520;SDS011;50896;46.714;17.322;2022-09-27T15:55:21;1.35;;;0.95;;
64520;SDS011;50896;46.714;17.322;2022-09-27T15:57:55;1.65;;;1.02;;
64520;SDS011;50896;46.714;17.322;2022-09-27T16:00:25;1.00;;;0.88;;
64520;SDS011;50896;46.714;17.322;2022-09-27T16:02:52;2.45;;;0.90;;
64520;SDS011;50896;46.714;17.322;2022-09-27T16:05:19;2.85;;;1.00;;
64520;SDS011;50896;46.714;17.322;2022-09-27T16:07:49;1.45;;;0.80;;
64520;SDS011;50896;46.714;17.322;2022-09-27T16:10:17;2.80;;;0.95;;
64520;SDS011;50896;46.714;17.322;2022-09-27T16:12:44;1.60;;;0.88;;
64520;SDS011;50896;46.714;17.322;2022-09-27T16:15:12;2.00;;;0.80;;
64520;SDS011;50896;46.714;17.322;2022-09-27T16:17:39;2.28;;;0.80;;
64520;SDS011;50896;46.714;17.322;2022-09-27T16:22:43;1.27;;;0.90;;
64520;SDS011;50896;46.714;17.322;2022-09-27T16:25:11;1.75;;;0.80;;
64520;SDS011;50896;46.714;17.322;2022-09-27T16:27:37;1.45;;;1.00;;
64520;SDS011;50896;46.714;17.322;2022-09-27T16:30:04;1.02;;;0.90;;
64520;SDS011;50896;46.714;17.322;2022-09-27T16:32:32;1.70;;;1.02;;
64520;SDS011;50896;46.714;17.322;2022-09-27T16:34:59;1.55;;;1.13;;
64520;SDS011;50896;46.714;17.322;2022-09-27T16:37:26;1.55;;;0.90;;
64520;SDS011;50896;46.714;17.322;2022-09-27T16:39:53;4.82;;;2.47;;
64520;SDS011;50896;46.714;17.322;2022-09-27T16:42:19;7.25;;;3.78;;
64520;SDS011;50896;46.714;17.322;2022-09-27T16:44:46;4.38;;;3.17;;
64520;SDS011;50896;46.714;17.322;2022-09-27T16:47:14;5.07;;;3.47;;
64520;SDS011;50896;46.714;17.322;2022-09-27T16:49:41;4.97;;;3.58;;
64520;SDS011;50896;46.714;17.322;2022-09-27T16:52:26;4.88;;;3.00;;
64520;SDS011;50896;46.714;17.322;2022-09-27T16:57:22;3.92;;;2.60;;
64520;SDS011;50896;46.714;17.322;2022-09-27T16:59:49;4.68;;;2.55;;
64520;SDS011;50896;46.714;17.322;2022-09-27T17:02:16;5.30;;;3.05;;
64520;SDS011;50896;46.714;17.322;2022-09-27T17:04:43;9.07;;;4.20;;
64520;SDS011;50896;46.714;17.322;2022-09-27T17:07:10;12.30;;;7.68;;
64520;SDS011;50896;46.714;17.322;2022-09-27T17:09:37;4.82;;;3.20;;
64520;SDS011;50896;46.714;17.322;2022-09-27T17:12:05;4.68;;;3.08;;
64520;SDS011;50896;46.714;17.322;2022-09-27T17:14:37;4.63;;;3.25;;
64520;SDS011;50896;46.714;17.322;2022-09-27T17:17:04;4.10;;;3.00;;
64520;SDS011;50896;46.714;17.322;2022-09-27T17:19:31;4.15;;;2.78;;
64520;SDS011;50896;46.714;17.322;2022-09-27T17:21:59;3.47;;;2.33;;
64520;SDS011;50896;46.714;17.322;2022-09-27T17:24:26;3.72;;;1.90;;
64520;SDS011;50896;46.714;17.322;2022-09-27T17:26:53;2.67;;;1.85;;
64520;SDS011;50896;46.714;17.322;2022-09-27T17:29:20;4.40;;;2.35;;
64520;SDS011;50896;46.714;17.322;2022-09-27T17:31:47;4.07;;;1.92;;
64520;SDS011;50896;46.714;17.322;2022-09-27T17:34:14;2.72;;;2.03;;
64520;SDS011;50896;46.714;17.322;2022-09-27T17:36:42;4.13;;;1.80;;
64520;SDS011;50896;46.714;17.322;2022-09-27T17:39:14;3.60;;;1.65;;
64520;SDS011;50896;46.714;17.322;2022-09-27T17:41:42;2.22;;;1.95;;
64520;SDS011;50896;46.714;17.322;2022-09-27T17:44:13;2.58;;;2.20;;
64520;SDS011;50896;46.714;17.322;2022-09-27T17:46:41;2.80;;;2.25;;
64520;SDS011;50896;46.714;17.322;2022-09-27T17:49:08;5.35;;;2.95;;
64520;SDS011;50896;46.714;17.322;2022-09-27T17:51:54;8.60;;;7.55;;
64520;SDS011;50896;46.714;17.322;2022-09-27T17:54:22;15.43;;;12.20;;
64520;SDS011;50896;46.714;17.322;2022-09-27T17:56:51;4.15;;;2.78;;
64520;SDS011;50896;46.714;17.322;2022-09-27T17:59:18;3.70;;;2.40;;
64520;SDS011;50896;46.714;17.322;2022-09-27T18:01:45;3.53;;;2.63;;
64520;SDS011;50896;46.714;17.322;2022-09-27T18:04:13;3.10;;;2.70;;
64520;SDS011;50896;46.714;17.322;2022-09-27T18:06:44;3.10;;;2.40;;
64520;SDS011;50896;46.714;17.322;2022-09-27T18:09:13;4.32;;;2.05;;
64520;SDS011;50896;46.714;17.322;2022-09-27T18:11:41;4.93;;;2.42;;
64520;SDS011;50896;46.714;17.322;2022-09-27T18:14:09;4.53;;;2.60;;
64520;SDS011;50896;46.714;17.322;2022-09-27T18:16:37;4.35;;;2.47;;
64520;SDS011;50896;46.714;17.322;2022-09-27T18:19:10;4.93;;;2.30;;
64520;SDS011;50896;46.714;17.322;2022-09-27T18:21:39;3.92;;;2.85;;
64520;SDS011;50896;46.714;17.322;2022-09-27T18:24:06;3.90;;;2.88;;